sensor_id;sensor_type;location;lat;lon;timestamp;pressure;altitude;pressure_sealevel;temperature;humidity
17260;BME280;8746;49.230;9.220;2023-05-23T00:01:13;99646.19;;;17.86;98.57
17260;BME280;8746;49.230;9.220;2023-05-23T00:03:41;99646.81;;;17.89;98.93
17260;BME280;8746;49.230;9.220;2023-05-23T00:06:06;99645.13;;;17.64;100.00
17260;BME280;8746;49.230;9.220;2023-05-23T00:08:32;99648.53;;;17.66;100.00
17260;BME280;8746;49.230;9.220;2023-05-23T00:10:57;99645.13;;;17.64;100.00
17260;BME280;8746;49.230;9.220;2023-05-23T00:13:22;99649.88;;;17.60;100.00
17260;BME280;8746;49.230;9.220;2023-05-23T00:15:48;99647.53;;;17.56;100.00
17260;BME280;8746;49.230;9.220;2023-05-23T00:18:13;99644.25;;;17.52;100.00
17260;BME280;8746;49.230;9.220;2023-05-23T00:20:40;99653.81;;;17.55;100.00
17260;BME280;8746;49.230;9.220;2023-05-23T00:23:10;99652.88;;;17.56;100.00
17260;BME280;8746;49.230;9.220;2023-05-23T00:25:42;99648.44;;;17.43;100.00
17260;BME280;8746;49.230;9.220;2023-05-23T00:28:13;99658.47;;;17.40;100.00
17260;BME280;8746;49.230;9.220;2023-05-23T00:30:38;99658.81;;;17.35;100.00
17260;BME280;8746;49.230;9.220;2023-05-23T00:33:04;99658.69;;;17.37;100.00
17260;BME280;8746;49.230;9.220;2023-05-23T00:35:30;99662.56;;;17.33;100.00
17260;BME280;8746;49.230;9.220;2023-05-23T00:37:55;99664.59;;;17.29;100.00
17260;BME280;8746;49.230;9.220;2023-05-23T00:40:21;99663.09;;;17.25;100.00
17260;BME280;8746;49.230;9.220;2023-05-23T00:42:47;99664.28;;;17.21;100.00
17260;BME280;8746;49.230;9.220;2023-05-23T00:45:12;99667.91;;;17.20;100.00
17260;BME280;8746;49.230;9.220;2023-05-23T00:47:41;99661.88;;;17.18;100.00
17260;BME280;8746;49.230;9.220;2023-05-23T00:50:10;99657.59;;;17.15;100.00
17260;BME280;8746;49.230;9.220;2023-05-23T00:52:36;99659.53;;;17.13;100.00
17260;BME280;8746;49.230;9.220;2023-05-23T00:55:02;99662.72;;;17.05;100.00
17260;BME280;8746;49.230;9.220;2023-05-23T00:57:28;99669.00;;;17.17;100.00
17260;BME280;8746;49.230;9.220;2023-05-23T00:59:53;99673.38;;;17.05;100.00
17260;BME280;8746;49.230;9.220;2023-05-23T01:02:19;99674.13;;;17.07;100.00
17260;BME280;8746;49.230;9.220;2023-05-23T01:04:48;99673.06;;;17.10;100.00
17260;BME280;8746;49.230;9.220;2023-05-23T01:07:18;99674.31;;;17.17;100.00
17260;BME280;8746;49.230;9.220;2023-05-23T01:09:44;99679.66;;;17.17;100.00
17260;BME280;8746;49.230;9.220;2023-05-23T01:15:03;99677.94;;;17.16;100.00
17260;BME280;8746;49.230;9.220;2023-05-23T01:28:30;99673.31;;;16.94;100.00
17260;BME280;8746;49.230;9.220;2023-05-23T01:30:58;99668.94;;;16.93;100.00
17260;BME280;8746;49.230;9.220;2023-05-23T01:33:27;99677.34;;;16.87;100.00
17260;BME280;8746;49.230;9.220;2023-05-23T01:35:54;99680.75;;;16.89;100.00
17260;BME280;8746;49.230;9.220;2023-05-23T01:38:21;99666.56;;;16.88;100.00
17260;BME280;8746;49.230;9.220;2023-05-23T01:40:47;99671.41;;;16.96;100.00
17260;BME280;8746;49.230;9.220;2023-05-23T01:43:12;99675.84;;;16.95;100.00
17260;BME280;8746;49.230;9.220;2023-05-23T01:45:38;99685.44;;;16.98;100.00
17260;BME280;8746;49.230;9.220;2023-05-23T01:48:03;99686.06;;;17.02;100.00
17260;BME280;8746;49.230;9.220;2023-05-23T01:50:31;99686.50;;;17.08;100.00
17260;BME280;8746;49.230;9.220;2023-05-23T01:52:56;99688.84;;;17.00;100.00
17260;BME280;8746;49.230;9.220;2023-05-23T01:55:24;99680.75;;;17.02;100.00
17260;BME280;8746;49.230;9.220;2023-05-23T01:57:53;99684.59;;;16.97;100.00
17260;BME280;8746;49.230;9.220;2023-05-23T02:00:20;99687.16;;;16.99;100.00
17260;BME280;8746;49.230;9.220;2023-05-23T02:02:46;99694.44;;;16.97;100.00
17260;BME280;8746;49.230;9.220;2023-05-23T02:05:11;99699.97;;;16.94;100.00
17260;BME280;8746;49.230;9.220;2023-05-23T02:07:36;99703.38;;;16.96;100.00
17260;BME280;8746;49.230;9.220;2023-05-23T02:10:03;99701.00;;;16.91;100.00
17260;BME280;8746;49.230;9.220;2023-05-23T02:12:29;99697.06;;;16.84;100.00
17260;BME280;8746;49.230;9.220;2023-05-23T02:14:54;99707.19;;;16.92;100.00
17260;BME280;8746;49.230;9.220;2023-05-23T02:17:20;99700.72;;;16.96;100.00
17260;BME280;8746;49.230;9.220;2023-05-23T02:19:46;99702.31;;;16.98;100.00
17260;BME280;8746;49.230;9.220;2023-05-23T02:22:12;99703.97;;;16.87;100.00
17260;BME280;8746;49.230;9.220;2023-05-23T02:24:38;99706.16;;;16.94;100.00
17260;BME280;8746;49.230;9.220;2023-05-23T02:27:04;99702.63;;;16.94;100.00
17260;BME280;8746;49.230;9.220;2023-05-23T02:29:29;99712.31;;;16.95;100.00
17260;BME280;8746;49.230;9.220;2023-05-23T02:31:55;99710.63;;;16.94;100.00
17260;BME280;8746;49.230;9.220;2023-05-23T02:34:20;99707.09;;;16.93;100.00
17260;BME280;8746;49.230;9.220;2023-05-23T02:36:45;99709.44;;;16.98;100.00
17260;BME280;8746;49.230;9.220;2023-05-23T02:39:11;99705.16;;;16.95;100.00
17260;BME280;8746;49.230;9.220;2023-05-23T02:41:36;99717.34;;;17.00;100.00
17260;BME280;8746;49.230;9.220;2023-05-23T02:44:02;99713.47;;;16.91;100.00
17260;BME280;8746;49.230;9.220;2023-05-23T02:46:27;99719.00;;;16.88;100.00
17260;BME280;8746;49.230;9.220;2023-05-23T02:48:52;99718.91;;;16.89;100.00
17260;BME280;8746;49.230;9.220;2023-05-23T02:51:18;99718.69;;;16.79;100.00
17260;BME280;8746;49.230;9.220;2023-05-23T02:53:43;99719.56;;;16.80;100.00
17260;BME280;8746;49.230;9.220;2023-05-23T02:56:08;99724.44;;;16.86;100.00
17260;BME280;8746;49.230;9.220;2023-05-23T02:58:34;99724.78;;;16.81;100.00
17260;BME280;8746;49.230;9.220;2023-05-23T03:01:03;99722.22;;;16.67;100.00
17260;BME280;8746;49.230;9.220;2023-05-23T03:03:28;99725.31;;;16.74;100.00
17260;BME280;8746;49.230;9.220;2023-05-23T03:05:56;99726.47;;;16.70;100.00
17260;BME280;8746;49.230;9.220;2023-05-23T03:08:21;99723.28;;;16.64;100.00
17260;BME280;8746;49.230;9.220;2023-05-23T03:10:46;99717.41;;;16.59;100.00
17260;BME280;8746;49.230;9.220;2023-05-23T03:13:12;99722.44;;;16.64;100.00
17260;BME280;8746;49.230;9.220;2023-05-23T03:15:37;99718.91;;;16.63;100.00
17260;BME280;8746;49.230;9.220;2023-05-23T03:18:02;99723.81;;;16.70;100.00
17260;BME280;8746;49.230;9.220;2023-05-23T03:20:28;99722.53;;;16.75;100.00
17260;BME280;8746;49.230;9.220;2023-05-23T03:22:53;99730.97;;;16.69;100.00
17260;BME280;8746;49.230;9.220;2023-05-23T03:25:18;99730.00;;;16.70;100.00
17260;BME280;8746;49.230;9.220;2023-05-23T03:27:44;99736.06;;;16.72;100.00
17260;BME280;8746;49.230;9.220;2023-05-23T03:30:10;99736.47;;;16.66;100.00
17260;BME280;8746;49.230;9.220;2023-05-23T03:32:35;99732.88;;;16.67;100.00
17260;BME280;8746;49.230;9.220;2023-05-23T03:35:01;99733.72;;;16.67;100.00
17260;BME280;8746;49.230;9.220;2023-05-23T03:37:26;99737.03;;;16.71;100.00
17260;BME280;8746;49.230;9.220;2023-05-23T03:39:52;99736.72;;;16.63;100.00
17260;BME280;8746;49.230;9.220;2023-05-23T03:42:17;99742.38;;;16.71;100.00
17260;BME280;8746;49.230;9.220;2023-05-23T03:44:42;99745.56;;;16.76;100.00
17260;BME280;8746;49.230;9.220;2023-05-23T03:47:08;99746.91;;;16.82;100.00
17260;BME280;8746;49.230;9.220;2023-05-23T03:49:33;99746.59;;;16.87;100.00
17260;BME280;8746;49.230;9.220;2023-05-23T03:51:59;99751.53;;;16.93;100.00
17260;BME280;8746;49.230;9.220;2023-05-23T03:54:24;99756.03;;;16.92;100.00
17260;BME280;8746;49.230;9.220;2023-05-23T03:56:50;99751.53;;;16.93;100.00
17260;BME280;8746;49.230;9.220;2023-05-23T03:59:15;99754.84;;;16.96;100.00
17260;BME280;8746;49.230;9.220;2023-05-23T04:01:41;99754.84;;;16.96;100.00
17260;BME280;8746;49.230;9.220;2023-05-23T04:04:06;99755.25;;;16.90;100.00
17260;BME280;8746;49.230;9.220;2023-05-23T04:06:31;99751.75;;;16.90;100.00
17260;BME280;8746;49.230;9.220;2023-05-23T04:08:57;99753.25;;;16.94;100.00
17260;BME280;8746;49.230;9.220;2023-05-23T04:11:23;99760.28;;;16.95;100.00
17260;BME280;8746;49.230;9.220;2023-05-23T04:13:48;99758.78;;;16.91;100.00
17260;BME280;8746;49.230;9.220;2023-05-23T04:16:13;99754.19;;;16.93;100.00
17260;BME280;8746;49.230;9.220;2023-05-23T04:18:39;99754.41;;;16.90;100.00
17260;BME280;8746;49.230;9.220;2023-05-23T04:21:04;99760.50;;;16.92;100.00
17260;BME280;8746;49.230;9.220;2023-05-23T04:23:30;99756.34;;;17.01;100.00
17260;BME280;8746;49.230;9.220;2023-05-23T04:25:55;99762.09;;;17.07;100.00
17260;BME280;8746;49.230;9.220;2023-05-23T04:28:25;99758.22;;;17.11;100.00
17260;BME280;8746;49.230;9.220;2023-05-23T04:30:51;99758.47;;;17.08;100.00
17260;BME280;8746;49.230;9.220;2023-05-23T04:33:17;99768.38;;;17.06;100.00
17260;BME280;8746;49.230;9.220;2023-05-23T04:35:43;99761.34;;;17.05;100.00
17260;BME280;8746;49.230;9.220;2023-05-23T04:38:08;99762.84;;;16.96;100.00
17260;BME280;8746;49.230;9.220;2023-05-23T04:40:34;99759.22;;;16.97;100.00
17260;BME280;8746;49.230;9.220;2023-05-23T04:42:59;99765.00;;;17.04;100.00
17260;BME280;8746;49.230;9.220;2023-05-23T04:45:25;99768.50;;;17.05;100.00
17260;BME280;8746;49.230;9.220;2023-05-23T04:47:50;99758.16;;;17.00;100.00
17260;BME280;8746;49.230;9.220;2023-05-23T04:50:19;99763.47;;;17.00;100.00
17260;BME280;8746;49.230;9.220;2023-05-23T04:52:46;99758.59;;;17.07;100.00
17260;BME280;8746;49.230;9.220;2023-05-23T04:55:11;99766.03;;;17.14;100.00
17260;BME280;8746;49.230;9.220;2023-05-23T04:57:37;99767.09;;;17.12;100.00
17260;BME280;8746;49.230;9.220;2023-05-23T05:00:03;99763.56;;;17.11;100.00
17260;BME280;8746;49.230;9.220;2023-05-23T05:02:35;99768.16;;;17.09;100.00
17260;BME280;8746;49.230;9.220;2023-05-23T05:05:02;99774.66;;;17.05;100.00
17260;BME280;8746;49.230;9.220;2023-05-23T05:07:29;99776.25;;;17.08;100.00
17260;BME280;8746;49.230;9.220;2023-05-23T05:09:55;99774.03;;;17.14;100.00
17260;BME280;8746;49.230;9.220;2023-05-23T05:12:21;99775.19;;;17.23;100.00
17260;BME280;8746;49.230;9.220;2023-05-23T05:14:46;99768.78;;;17.26;100.00
17260;BME280;8746;49.230;9.220;2023-05-23T05:17:11;99767.38;;;17.33;100.00
17260;BME280;8746;49.230;9.220;2023-05-23T05:19:37;99766.81;;;17.41;100.00
17260;BME280;8746;49.230;9.220;2023-05-23T05:22:03;99764.13;;;17.54;100.00
17260;BME280;8746;49.230;9.220;2023-05-23T05:24:28;99759.31;;;17.59;100.00
17260;BME280;8746;49.230;9.220;2023-05-23T05:26:54;99768.91;;;17.61;100.00
17260;BME280;8746;49.230;9.220;2023-05-23T05:29:20;99779.88;;;17.70;100.00
17260;BME280;8746;49.230;9.220;2023-05-23T05:31:46;99775.50;;;17.69;100.00
17260;BME280;8746;49.230;9.220;2023-05-23T05:34:11;99782.56;;;17.70;99.83
17260;BME280;8746;49.230;9.220;2023-05-23T05:36:38;99778.69;;;17.74;99.97
17260;BME280;8746;49.230;9.220;2023-05-23T05:39:10;99788.44;;;17.62;100.00
17260;BME280;8746;49.230;9.220;2023-05-23T05:41:35;99793.84;;;17.73;100.00
17260;BME280;8746;49.230;9.220;2023-05-23T05:44:00;99791.31;;;17.72;100.00
17260;BME280;8746;49.230;9.220;2023-05-23T05:46:26;99801.16;;;17.58;100.00
17260;BME280;8746;49.230;9.220;2023-05-23T05:48:51;99795.38;;;17.65;99.94
17260;BME280;8746;49.230;9.220;2023-05-23T05:51:16;99792.81;;;17.63;99.54
17260;BME280;8746;49.230;9.220;2023-05-23T05:53:42;99803.25;;;17.66;99.71
17260;BME280;8746;49.230;9.220;2023-05-23T05:56:07;99804.91;;;17.56;100.00
17260;BME280;8746;49.230;9.220;2023-05-23T05:58:33;99806.25;;;17.61;100.00
17260;BME280;8746;49.230;9.220;2023-05-23T06:00:58;99804.75;;;17.70;100.00
17260;BME280;8746;49.230;9.220;2023-05-23T06:03:23;99811.44;;;17.76;99.37
17260;BME280;8746;49.230;9.220;2023-05-23T06:05:49;99810.47;;;17.90;98.39
17260;BME280;8746;49.230;9.220;2023-05-23T06:08:14;99818.91;;;17.84;99.24
17260;BME280;8746;49.230;9.220;2023-05-23T06:10:40;99812.84;;;17.82;98.52
17260;BME280;8746;49.230;9.220;2023-05-23T06:13:05;99811.19;;;17.92;98.15
17260;BME280;8746;49.230;9.220;2023-05-23T06:15:30;99815.50;;;17.82;97.89
17260;BME280;8746;49.230;9.220;2023-05-23T06:17:56;99823.06;;;17.88;97.10
17260;BME280;8746;49.230;9.220;2023-05-23T06:20:21;99827.19;;;17.92;95.85
17260;BME280;8746;49.230;9.220;2023-05-23T06:22:46;99825.38;;;18.05;95.10
17260;BME280;8746;49.230;9.220;2023-05-23T06:25:12;99829.47;;;18.22;92.77
17260;BME280;8746;49.230;9.220;2023-05-23T06:27:37;99830.22;;;18.24;92.29
17260;BME280;8746;49.230;9.220;2023-05-23T06:30:03;99833.16;;;18.33;89.96
17260;BME280;8746;49.230;9.220;2023-05-23T06:32:29;99829.91;;;18.40;89.39
17260;BME280;8746;49.230;9.220;2023-05-23T06:34:54;99829.91;;;18.40;89.34
17260;BME280;8746;49.230;9.220;2023-05-23T06:37:20;99835.59;;;18.36;87.22
17260;BME280;8746;49.230;9.220;2023-05-23T06:39:45;99843.38;;;18.15;89.43
17260;BME280;8746;49.230;9.220;2023-05-23T06:42:11;99840.94;;;18.36;87.80
17260;BME280;8746;49.230;9.220;2023-05-23T06:44:36;99847.31;;;18.22;87.44
17260;BME280;8746;49.230;9.220;2023-05-23T06:47:01;99855.38;;;18.33;87.96
17260;BME280;8746;49.230;9.220;2023-05-23T06:49:27;99848.66;;;18.52;87.82
17260;BME280;8746;49.230;9.220;2023-05-23T06:51:52;99852.59;;;18.70;87.01
17260;BME280;8746;49.230;9.220;2023-05-23T06:54:18;99858.00;;;18.82;87.13
17260;BME280;8746;49.230;9.220;2023-05-23T06:56:43;99859.34;;;18.52;87.71
17260;BME280;8746;49.230;9.220;2023-05-23T06:59:09;99867.06;;;18.43;89.07
17260;BME280;8746;49.230;9.220;2023-05-23T07:01:34;99867.84;;;18.57;87.66
17260;BME280;8746;49.230;9.220;2023-05-23T07:04:00;99865.81;;;18.61;86.45
17260;BME280;8746;49.230;9.220;2023-05-23T07:06:25;99870.06;;;18.63;86.57
17260;BME280;8746;49.230;9.220;2023-05-23T07:08:52;99867.25;;;18.29;87.28
17260;BME280;8746;49.230;9.220;2023-05-23T07:11:17;99869.66;;;18.45;87.56
17260;BME280;8746;49.230;9.220;2023-05-23T07:13:43;99868.50;;;18.36;86.00
17260;BME280;8746;49.230;9.220;2023-05-23T07:16:08;99878.03;;;18.27;87.62
17260;BME280;8746;49.230;9.220;2023-05-23T07:18:33;99880.38;;;18.32;86.54
17260;BME280;8746;49.230;9.220;2023-05-23T07:20:59;99878.72;;;18.18;83.30
17260;BME280;8746;49.230;9.220;2023-05-23T07:23:24;99887.28;;;18.10;82.88
17260;BME280;8746;49.230;9.220;2023-05-23T07:25:50;99888.03;;;18.37;83.33
17260;BME280;8746;49.230;9.220;2023-05-23T07:28:15;99894.16;;;18.26;80.80
17260;BME280;8746;49.230;9.220;2023-05-23T07:30:41;99896.50;;;18.31;80.01
17260;BME280;8746;49.230;9.220;2023-05-23T07:33:06;99900.25;;;18.28;79.01
17260;BME280;8746;49.230;9.220;2023-05-23T07:35:31;99899.75;;;18.47;78.30
17260;BME280;8746;49.230;9.220;2023-05-23T07:37:57;99898.69;;;18.50;76.29
17260;BME280;8746;49.230;9.220;2023-05-23T07:40:23;99913.19;;;18.58;76.85
17260;BME280;8746;49.230;9.220;2023-05-23T07:42:48;99903.94;;;18.87;76.71
17260;BME280;8746;49.230;9.220;2023-05-23T07:45:13;99908.25;;;19.01;76.09
17260;BME280;8746;49.230;9.220;2023-05-23T07:47:39;99909.72;;;18.69;75.92
17260;BME280;8746;49.230;9.220;2023-05-23T07:50:05;99909.97;;;18.78;76.82
17260;BME280;8746;49.230;9.220;2023-05-23T07:52:31;99912.41;;;18.81;77.03
17260;BME280;8746;49.230;9.220;2023-05-23T07:54:57;99907.63;;;18.97;75.22
17260;BME280;8746;49.230;9.220;2023-05-23T07:57:23;99925.03;;;18.79;75.09
17260;BME280;8746;49.230;9.220;2023-05-23T07:59:52;99924.81;;;18.82;77.00
17260;BME280;8746;49.230;9.220;2023-05-23T08:02:18;99934.97;;;18.77;75.85
17260;BME280;8746;49.230;9.220;2023-05-23T08:04:43;99931.00;;;18.58;76.51
17260;BME280;8746;49.230;9.220;2023-05-23T08:07:10;99927.31;;;18.48;75.89
17260;BME280;8746;49.230;9.220;2023-05-23T08:09:39;99938.63;;;18.51;74.91
17260;BME280;8746;49.230;9.220;2023-05-23T08:12:05;99938.38;;;18.30;75.74
17260;BME280;8746;49.230;9.220;2023-05-23T08:14:31;99935.78;;;18.41;75.77
17260;BME280;8746;49.230;9.220;2023-05-23T08:16:56;99939.81;;;18.23;76.40
17260;BME280;8746;49.230;9.220;2023-05-23T08:19:21;99935.25;;;17.99;77.79
17260;BME280;8746;49.230;9.220;2023-05-23T08:21:47;99935.56;;;17.94;77.79
17260;BME280;8746;49.230;9.220;2023-05-23T08:24:12;99948.22;;;18.30;76.30
17260;BME280;8746;49.230;9.220;2023-05-23T08:26:38;99950.44;;;18.36;75.16
17260;BME280;8746;49.230;9.220;2023-05-23T08:29:04;99957.63;;;18.22;76.36
17260;BME280;8746;49.230;9.220;2023-05-23T08:31:29;99957.88;;;18.43;75.82
17260;BME280;8746;49.230;9.220;2023-05-23T08:33:55;99965.72;;;18.34;75.67
17260;BME280;8746;49.230;9.220;2023-05-23T08:36:21;99971.63;;;18.26;75.62
17260;BME280;8746;49.230;9.220;2023-05-23T08:38:46;99964.16;;;18.18;74.65
17260;BME280;8746;49.230;9.220;2023-05-23T08:41:18;99972.25;;;17.91;75.79
17260;BME280;8746;49.230;9.220;2023-05-23T08:43:43;99971.03;;;18.09;76.64
17260;BME280;8746;49.230;9.220;2023-05-23T08:46:10;99972.06;;;18.20;75.61
17260;BME280;8746;49.230;9.220;2023-05-23T08:48:37;99972.75;;;17.98;76.05
17260;BME280;8746;49.230;9.220;2023-05-23T08:51:03;99978.69;;;17.75;76.56
17260;BME280;8746;49.230;9.220;2023-05-23T08:53:30;99985.09;;;17.60;77.72
17260;BME280;8746;49.230;9.220;2023-05-23T08:55:55;99986.38;;;17.67;77.32
17260;BME280;8746;49.230;9.220;2023-05-23T08:58:27;99976.13;;;17.35;77.72
17260;BME280;8746;49.230;9.220;2023-05-23T09:00:54;99990.22;;;17.76;77.69
17260;BME280;8746;49.230;9.220;2023-05-23T09:03:19;99987.34;;;17.66;75.35
17260;BME280;8746;49.230;9.220;2023-05-23T09:05:46;99983.91;;;17.77;75.34
17260;BME280;8746;49.230;9.220;2023-05-23T09:08:12;99981.06;;;17.80;73.38
17260;BME280;8746;49.230;9.220;2023-05-23T09:10:37;99980.00;;;17.96;72.54
17260;BME280;8746;49.230;9.220;2023-05-23T09:13:04;99988.72;;;17.72;73.42
17260;BME280;8746;49.230;9.220;2023-05-23T09:15:29;99994.28;;;17.82;75.10
17260;BME280;8746;49.230;9.220;2023-05-23T09:17:59;99992.56;;;17.68;73.42
17260;BME280;8746;49.230;9.220;2023-05-23T09:20:28;99989.34;;;17.88;72.43
17260;BME280;8746;49.230;9.220;2023-05-23T09:22:54;99991.53;;;17.96;71.84
17260;BME280;8746;49.230;9.220;2023-05-23T09:25:20;99983.03;;;18.28;72.15
17260;BME280;8746;49.230;9.220;2023-05-23T09:27:45;99986.88;;;18.24;69.80
17260;BME280;8746;49.230;9.220;2023-05-23T09:30:11;99985.00;;;18.50;70.72
17260;BME280;8746;49.230;9.220;2023-05-23T09:32:37;99976.06;;;18.76;69.60
17260;BME280;8746;49.230;9.220;2023-05-23T09:35:06;99979.56;;;19.25;66.13
17260;BME280;8746;49.230;9.220;2023-05-23T09:37:41;99976.09;;;19.47;65.24
17260;BME280;8746;49.230;9.220;2023-05-23T09:40:12;99973.28;;;19.48;65.48
17260;BME280;8746;49.230;9.220;2023-05-23T09:42:45;99966.63;;;19.65;64.26
17260;BME280;8746;49.230;9.220;2023-05-23T09:45:12;99973.41;;;19.47;63.95
17260;BME280;8746;49.230;9.220;2023-05-23T09:47:37;99974.91;;;19.74;63.67
17260;BME280;8746;49.230;9.220;2023-05-23T09:50:03;99970.34;;;19.87;62.88
17260;BME280;8746;49.230;9.220;2023-05-23T09:52:36;99972.53;;;20.27;61.96
17260;BME280;8746;49.230;9.220;2023-05-23T09:55:02;99968.84;;;20.28;60.90
17260;BME280;8746;49.230;9.220;2023-05-23T09:57:28;99969.34;;;20.22;58.40
17260;BME280;8746;49.230;9.220;2023-05-23T09:59:57;99975.09;;;19.83;58.99
17260;BME280;8746;49.230;9.220;2023-05-23T10:05:37;99959.28;;;20.58;60.11
17260;BME280;8746;49.230;9.220;2023-05-23T10:08:12;99966.00;;;20.96;55.71
17260;BME280;8746;49.230;9.220;2023-05-23T10:11:21;99969.34;;;20.89;57.32
17260;BME280;8746;49.230;9.220;2023-05-23T10:13:52;99969.53;;;20.53;56.92
17260;BME280;8746;49.230;9.220;2023-05-23T10:16:23;99966.59;;;20.56;59.15
17260;BME280;8746;49.230;9.220;2023-05-23T10:19:01;99965.28;;;20.94;57.76
17260;BME280;8746;49.230;9.220;2023-05-23T10:21:35;99959.63;;;21.51;56.13
17260;BME280;8746;49.230;9.220;2023-05-23T10:24:03;99965.41;;;21.68;54.22
17260;BME280;8746;49.230;9.220;2023-05-23T10:26:29;99960.56;;;21.19;54.74
17260;BME280;8746;49.230;9.220;2023-05-23T10:28:56;99961.53;;;20.97;55.03
17260;BME280;8746;49.230;9.220;2023-05-23T10:31:22;99966.38;;;20.92;56.16
17260;BME280;8746;49.230;9.220;2023-05-23T10:34:03;99968.53;;;21.09;55.12
17260;BME280;8746;49.230;9.220;2023-05-23T10:36:50;99960.59;;;21.08;56.63
17260;BME280;8746;49.230;9.220;2023-05-23T10:42:10;99962.91;;;20.80;56.15
17260;BME280;8746;49.230;9.220;2023-05-23T10:44:37;99965.41;;;20.49;57.94
17260;BME280;8746;49.230;9.220;2023-05-23T10:47:03;99966.28;;;20.27;59.83
17260;BME280;8746;49.230;9.220;2023-05-23T10:49:42;99967.63;;;20.32;59.75
17260;BME280;8746;49.230;9.220;2023-05-23T10:52:17;99968.38;;;20.34;59.52
17260;BME280;8746;49.230;9.220;2023-05-23T10:54:45;99969.06;;;20.37;58.47
17260;BME280;8746;49.230;9.220;2023-05-23T10:57:14;99969.03;;;20.59;59.70
17260;BME280;8746;49.230;9.220;2023-05-23T10:59:41;99961.75;;;20.94;56.98
17260;BME280;8746;49.230;9.220;2023-05-23T11:02:15;99959.63;;;21.09;57.09
17260;BME280;8746;49.230;9.220;2023-05-23T11:04:43;99961.81;;;21.88;54.52
17260;BME280;8746;49.230;9.220;2023-05-23T11:07:29;99962.63;;;22.10;54.64
17260;BME280;8746;49.230;9.220;2023-05-23T11:10:07;99961.72;;;21.90;55.98
17260;BME280;8746;49.230;9.220;2023-05-23T11:12:41;99963.47;;;21.16;56.44
17260;BME280;8746;49.230;9.220;2023-05-23T11:17:53;99960.72;;;21.27;57.61
17260;BME280;8746;49.230;9.220;2023-05-23T11:20:20;99972.25;;;21.18;57.59
17260;BME280;8746;49.230;9.220;2023-05-23T11:23:02;99980.00;;;20.68;58.63
17260;BME280;8746;49.230;9.220;2023-05-23T11:25:49;99979.03;;;20.57;58.95
17260;BME280;8746;49.230;9.220;2023-05-23T11:28:16;99977.56;;;20.64;58.93
17260;BME280;8746;49.230;9.220;2023-05-23T11:30:42;99975.34;;;20.81;59.52
17260;BME280;8746;49.230;9.220;2023-05-23T11:33:11;99982.56;;;20.58;60.29
17260;BME280;8746;49.230;9.220;2023-05-23T11:35:45;99980.53;;;20.16;60.43
17260;BME280;8746;49.230;9.220;2023-05-23T11:38:13;99975.91;;;20.41;59.66
17260;BME280;8746;49.230;9.220;2023-05-23T11:40:41;99973.44;;;20.60;60.19
17260;BME280;8746;49.230;9.220;2023-05-23T11:43:11;99982.25;;;20.40;59.06
17260;BME280;8746;49.230;9.220;2023-05-23T11:45:38;99978.84;;;20.04;60.38
17260;BME280;8746;49.230;9.220;2023-05-23T11:50:33;99978.47;;;20.31;60.11
17260;BME280;8746;49.230;9.220;2023-05-23T11:52:59;99984.44;;;20.34;59.43
17260;BME280;8746;49.230;9.220;2023-05-23T11:55:24;99979.63;;;20.61;59.18
17260;BME280;8746;49.230;9.220;2023-05-23T11:57:50;99975.53;;;20.89;57.82
17260;BME280;8746;49.230;9.220;2023-05-23T12:00:17;99971.91;;;21.11;57.24
17260;BME280;8746;49.230;9.220;2023-05-23T12:02:44;99969.88;;;21.04;57.16
17260;BME280;8746;49.230;9.220;2023-05-23T12:05:11;99973.81;;;21.00;57.21
17260;BME280;8746;49.230;9.220;2023-05-23T12:07:42;99978.41;;;20.76;56.72
17260;BME280;8746;49.230;9.220;2023-05-23T12:10:10;99982.25;;;20.40;56.30
17260;BME280;8746;49.230;9.220;2023-05-23T12:12:37;99980.03;;;20.45;54.16
17260;BME280;8746;49.230;9.220;2023-05-23T12:15:03;99973.50;;;20.26;55.42
17260;BME280;8746;49.230;9.220;2023-05-23T12:17:29;99970.19;;;20.23;55.81
17260;BME280;8746;49.230;9.220;2023-05-23T12:19:54;99977.66;;;20.08;56.91
17260;BME280;8746;49.230;9.220;2023-05-23T12:22:23;99973.00;;;20.21;56.60
17260;BME280;8746;49.230;9.220;2023-05-23T12:24:52;99972.72;;;20.36;56.30
17260;BME280;8746;49.230;9.220;2023-05-23T12:27:18;99975.88;;;20.52;56.36
17260;BME280;8746;49.230;9.220;2023-05-23T12:29:49;99973.97;;;20.87;56.25
17260;BME280;8746;49.230;9.220;2023-05-23T12:32:16;99977.63;;;21.18;55.25
17260;BME280;8746;49.230;9.220;2023-05-23T12:34:41;99977.59;;;20.97;57.51
17260;BME280;8746;49.230;9.220;2023-05-23T12:37:07;99982.31;;;21.05;56.31
17260;BME280;8746;49.230;9.220;2023-05-23T12:39:35;99974.06;;;20.96;57.29
17260;BME280;8746;49.230;9.220;2023-05-23T12:42:07;99967.34;;;21.02;55.82
17260;BME280;8746;49.230;9.220;2023-05-23T12:44:33;99969.44;;;20.98;56.39
17260;BME280;8746;49.230;9.220;2023-05-23T12:46:59;99968.78;;;20.62;56.25
17260;BME280;8746;49.230;9.220;2023-05-23T12:49:24;99977.03;;;20.82;55.55
17260;BME280;8746;49.230;9.220;2023-05-23T12:51:49;99974.63;;;20.79;56.73
17260;BME280;8746;49.230;9.220;2023-05-23T12:54:15;99962.97;;;21.22;57.65
17260;BME280;8746;49.230;9.220;2023-05-23T12:56:41;99975.91;;;21.17;57.01
17260;BME280;8746;49.230;9.220;2023-05-23T12:59:06;99969.25;;;21.33;57.07
17260;BME280;8746;49.230;9.220;2023-05-23T13:01:33;99965.31;;;21.37;54.39
17260;BME280;8746;49.230;9.220;2023-05-23T13:03:59;99965.78;;;21.21;55.63
17260;BME280;8746;49.230;9.220;2023-05-23T13:06:26;99965.72;;;21.11;55.84
17260;BME280;8746;49.230;9.220;2023-05-23T13:08:51;99954.22;;;21.20;55.15
17260;BME280;8746;49.230;9.220;2023-05-23T13:11:18;99958.00;;;21.91;56.48
17260;BME280;8746;49.230;9.220;2023-05-23T13:13:45;99954.75;;;21.56;54.04
17260;BME280;8746;49.230;9.220;2023-05-23T13:16:10;99952.16;;;21.55;55.36
17260;BME280;8746;49.230;9.220;2023-05-23T13:18:36;99946.81;;;21.55;55.21
17260;BME280;8746;49.230;9.220;2023-05-23T13:21:01;99953.00;;;21.55;54.93
17260;BME280;8746;49.230;9.220;2023-05-23T13:23:27;99946.16;;;21.41;54.23
17260;BME280;8746;49.230;9.220;2023-05-23T13:25:54;99956.44;;;21.88;53.17
17260;BME280;8746;49.230;9.220;2023-05-23T13:28:20;99953.84;;;22.08;53.23
17260;BME280;8746;49.230;9.220;2023-05-23T13:30:45;99940.16;;;23.20;50.27